Time;durP1;ratioP1;P1;durP2;ratioP2;P2;SDS_P1;SDS_P2;PMS_P1;PMS_P2;Temp;Humidity;BMP_temperature;BMP_pressure;BME280_temperature;BME280_humidity;BME280_pressure;Samples;Min_cycle;Max_cycle;Signal;HPM_P1;HPM_P2
2021/12/31 00:00:12;;;;;;;0.00;0.00;;;;;;;;;;6244493;22;19996;-66
2021/12/31 00:02:38;;;;;;;0.00;0.00;;;;;;;;;;6271445;22;20049;-67
2021/12/31 00:05:03;;;;;;;0.00;0.00;;;;;;;;;;6271546;22;20422;-67
2021/12/31 00:07:28;;;;;;;0.00;0.00;;;;;;;;;;6271626;22;20662;-68
2021/12/31 00:09:59;;;;;;;0.00;0.00;;;;;;;;;;6271799;22;20045;-67
2021/12/31 00:12:24;;;;;;;0.00;0.00;;;;;;;;;;6271340;22;20003;-67
2021/12/31 00:14:49;;;;;;;0.00;0.00;;;;;;;;;;6272013;22;20065;-67
2021/12/31 00:17:15;;;;;;;0.00;0.00;;;;;;;;;;6243790;22;19995;-68
2021/12/31 00:19:44;;;;;;;0.00;0.00;;;;;;;;;;6272188;22;19996;-67
2021/12/31 00:24:49;;;;;;;0.00;0.00;;;;;;;;;;6272213;22;20008;-67
2021/12/31 00:27:15;;;;;;;0.00;0.00;;;;;;;;;;6270958;22;20022;-67
2021/12/31 00:29:40;;;;;;;0.00;0.00;;;;;;;;;;6272144;22;20071;-67
2021/12/31 00:32:06;;;;;;;0.00;0.00;;;;;;;;;;6271801;22;20055;-66
2021/12/31 00:34:31;;;;;;;1.65;0.85;;;;;;;;;;6270918;22;20317;-66
2021/12/31 00:36:56;;;;;;;0.00;0.00;;;;;;;;;;6271070;22;20064;-66
2021/12/31 00:39:22;;;;;;;0.00;0.00;;;;;;;;;;6270945;22;20306;-66
2021/12/31 00:41:47;;;;;;;0.00;0.00;;;;;;;;;;6271758;22;20027;-66
2021/12/31 00:44:13;;;;;;;0.00;0.00;;;;;;;;;;6271436;22;20415;-66
2021/12/31 00:46:38;;;;;;;0.00;0.00;;;;;;;;;;6271613;22;20424;-66
2021/12/31 00:49:03;;;;;;;0.00;0.00;;;;;;;;;;6272173;22;20467;-66
2021/12/31 00:51:29;;;;;;;0.10;0.10;;;;;;;;;;6273024;22;19995;-66
2021/12/31 00:53:54;;;;;;;0.00;0.00;;;;;;;;;;6273467;22;20011;-66
2021/12/31 00:56:20;;;;;;;0.00;0.00;;;;;;;;;;6272978;22;20075;-66
2021/12/31 00:58:45;;;;;;;0.93;0.50;;;;;;;;;;6273726;22;20034;-67
2021/12/31 01:01:17;;;;;;;0.00;0.00;;;;;;;;;;6272963;22;20071;-67
2021/12/31 01:03:42;;;;;;;0.00;0.00;;;;;;;;;;6273235;22;20003;-67
2021/12/31 01:06:07;;;;;;;0.00;0.00;;;;;;;;;;6273432;22;20010;-67
2021/12/31 01:08:32;;;;;;;0.00;0.00;;;;;;;;;;6272690;22;20004;-67
2021/12/31 01:10:58;;;;;;;0.00;0.00;;;;;;;;;;6273682;22;20010;-66
2021/12/31 01:13:31;;;;;;;0.00;0.00;;;;;;;;;;6272903;22;20007;-67
2021/12/31 01:16:00;;;;;;;0.00;0.00;;;;;;;;;;6273549;22;20006;-67
2021/12/31 01:19:44;;;;;;;0.00;0.00;;;;;;;;;;6272266;22;20075;-67
2021/12/31 01:21:10;;;;;;;0.00;0.00;;;;;;;;;;6272857;22;20004;-67
2021/12/31 01:23:35;;;;;;;0.00;0.00;;;;;;;;;;6272840;22;20116;-66
2021/12/31 01:26:01;;;;;;;0.00;0.00;;;;;;;;;;6272886;22;20384;-67
2021/12/31 01:28:26;;;;;;;0.00;0.00;;;;;;;;;;6272874;22;20058;-66
2021/12/31 01:30:51;;;;;;;0.00;0.00;;;;;;;;;;6272791;22;20014;-66
2021/12/31 01:33:16;;;;;;;0.00;0.00;;;;;;;;;;6272135;22;20025;-67
2021/12/31 01:35:42;;;;;;;0.00;0.00;;;;;;;;;;6273187;22;20031;-67
2021/12/31 01:38:07;;;;;;;1.90;1.48;;;;;;;;;;6273135;22;20098;-67
2021/12/31 01:40:33;;;;;;;0.40;0.35;;;;;;;;;;6272508;22;20049;-67
2021/12/31 01:42:59;;;;;;;0.00;0.00;;;;;;;;;;6272692;22;20000;-67
2021/12/31 01:45:29;;;;;;;0.00;0.00;;;;;;;;;;6272339;22;20030;-67
2021/12/31 01:50:20;;;;;;;0.00;0.00;;;;;;;;;;6273409;22;20097;-66
2021/12/31 01:52:45;;;;;;;0.10;0.03;;;;;;;;;;6272953;22;19999;-66
2021/12/31 01:55:11;;;;;;;0.00;0.00;;;;;;;;;;6272546;22;20056;-67
2021/12/31 01:57:38;;;;;;;0.00;0.00;;;;;;;;;;6272680;22;20349;-68
2021/12/31 02:00:04;;;;;;;0.00;0.00;;;;;;;;;;6272441;22;19996;-67
2021/12/31 02:02:29;;;;;;;0.00;0.00;;;;;;;;;;6271976;22;20057;-67
2021/12/31 02:04:55;;;;;;;0.00;0.00;;;;;;;;;;6272804;22;20000;-68
2021/12/31 02:07:20;;;;;;;0.00;0.00;;;;;;;;;;6271902;22;20008;-68
2021/12/31 02:09:49;;;;;;;0.00;0.00;;;;;;;;;;6272912;22;20027;-68
2021/12/31 02:12:14;;;;;;;0.00;0.00;;;;;;;;;;6272451;22;20365;-67
2021/12/31 02:14:39;;;;;;;0.00;0.00;;;;;;;;;;6272609;22;20003;-67
2021/12/31 02:17:07;;;;;;;0.00;0.00;;;;;;;;;;6272636;22;20019;-67
2021/12/31 02:19:33;;;;;;;0.00;0.00;;;;;;;;;;6272285;22;20006;-67
2021/12/31 02:21:58;;;;;;;0.00;0.00;;;;;;;;;;6272817;22;20071;-67
2021/12/31 02:24:24;;;;;;;0.00;0.00;;;;;;;;;;6271897;22;20047;-67
2021/12/31 02:26:50;;;;;;;0.00;0.00;;;;;;;;;;6272467;22;20089;-67
2021/12/31 02:29:15;;;;;;;0.00;0.00;;;;;;;;;;6244619;22;19999;-67
2021/12/31 02:31:40;;;;;;;0.00;0.00;;;;;;;;;;6272110;22;20402;-67
2021/12/31 02:34:05;;;;;;;0.00;0.00;;;;;;;;;;6272795;22;20004;-68
2021/12/31 02:36:31;;;;;;;0.00;0.00;;;;;;;;;;6272245;22;20022;-67
2021/12/31 02:38:56;;;;;;;0.00;0.00;;;;;;;;;;6272733;22;20329;-67
2021/12/31 02:41:21;;;;;;;0.00;0.00;;;;;;;;;;6272022;22;19999;-67
2021/12/31 02:43:47;;;;;;;0.00;0.00;;;;;;;;;;6272521;22;20004;-66
2021/12/31 02:46:12;;;;;;;0.00;0.00;;;;;;;;;;6272475;22;20010;-67
2021/12/31 02:48:37;;;;;;;0.00;0.00;;;;;;;;;;6271855;22;20006;-67
2021/12/31 02:51:03;;;;;;;0.00;0.00;;;;;;;;;;6272294;22;19996;-68
2021/12/31 02:53:50;;;;;;;0.00;0.00;;;;;;;;;;6271667;22;19996;-67
2021/12/31 02:56:16;;;;;;;0.00;0.00;;;;;;;;;;6272522;22;20082;-67
2021/12/31 02:58:43;;;;;;;0.00;0.00;;;;;;;;;;6272010;22;19999;-66
2021/12/31 03:01:08;;;;;;;0.00;0.00;;;;;;;;;;6272361;22;20002;-70
2021/12/31 03:03:35;;;;;;;0.00;0.00;;;;;;;;;;6271776;22;20031;-72
2021/12/31 03:06:00;;;;;;;0.00;0.00;;;;;;;;;;6272619;22;20011;-73
2021/12/31 03:08:28;;;;;;;0.00;0.00;;;;;;;;;;6271754;22;20342;-73
2021/12/31 03:10:55;;;;;;;0.00;0.00;;;;;;;;;;6272797;22;19996;-69
2021/12/31 03:13:21;;;;;;;0.00;0.00;;;;;;;;;;6271699;22;20009;-74
2021/12/31 03:15:47;;;;;;;0.00;0.00;;;;;;;;;;6272614;22;20004;-73
2021/12/31 03:18:12;;;;;;;0.00;0.00;;;;;;;;;;6272086;22;20074;-73
2021/12/31 03:20:46;;;;;;;0.00;0.00;;;;;;;;;;6271448;22;20375;-72
2021/12/31 03:23:11;;;;;;;0.00;0.00;;;;;;;;;;6272444;22;20380;-73
2021/12/31 03:25:37;;;;;;;0.00;0.00;;;;;;;;;;6271520;22;20116;-73
2021/12/31 03:28:03;;;;;;;0.00;0.00;;;;;;;;;;6272087;22;20352;-73
2021/12/31 03:30:28;;;;;;;0.00;0.00;;;;;;;;;;6271816;22;20291;-73
2021/12/31 03:32:53;;;;;;;0.00;0.00;;;;;;;;;;6271974;22;20002;-73
2021/12/31 03:35:19;;;;;;;0.00;0.00;;;;;;;;;;6271826;22;20005;-74
2021/12/31 03:37:44;;;;;;;0.00;0.00;;;;;;;;;;6271970;22;20011;-73
2021/12/31 03:40:10;;;;;;;0.00;0.00;;;;;;;;;;6272370;22;20011;-73
2021/12/31 03:42:35;;;;;;;0.00;0.00;;;;;;;;;;6271607;22;20578;-73
2021/12/31 03:45:00;;;;;;;0.00;0.00;;;;;;;;;;6272344;22;20425;-73
2021/12/31 03:47:25;;;;;;;0.00;0.00;;;;;;;;;;6271674;22;19999;-74
2021/12/31 03:49:51;;;;;;;0.00;0.00;;;;;;;;;;6271304;22;20037;-73
2021/12/31 03:52:16;;;;;;;0.00;0.00;;;;;;;;;;6272106;22;20007;-73
2021/12/31 03:54:41;;;;;;;0.00;0.00;;;;;;;;;;6271404;22;20058;-73
2021/12/31 03:57:06;;;;;;;0.00;0.00;;;;;;;;;;6271562;22;20398;-72
2021/12/31 03:59:32;;;;;;;0.00;0.00;;;;;;;;;;6271461;22;19996;-73
2021/12/31 04:01:57;;;;;;;0.00;0.00;;;;;;;;;;6271671;22;19996;-73
2021/12/31 04:04:22;;;;;;;0.00;0.00;;;;;;;;;;6271613;22;20456;-73
2021/12/31 04:06:47;;;;;;;0.00;0.00;;;;;;;;;;6272252;22;20293;-73
2021/12/31 04:09:12;;;;;;;0.00;0.00;;;;;;;;;;6272256;22;20424;-73
2021/12/31 04:11:38;;;;;;;0.00;0.00;;;;;;;;;;6271530;22;20004;-73
2021/12/31 04:14:03;;;;;;;0.00;0.00;;;;;;;;;;6244809;22;20093;-72
2021/12/31 04:16:30;;;;;;;0.00;0.00;;;;;;;;;;6271722;22;19988;-73
2021/12/31 04:18:55;;;;;;;0.00;0.00;;;;;;;;;;6244957;22;20015;-73
2021/12/31 04:21:22;;;;;;;0.00;0.00;;;;;;;;;;6271378;22;20652;-73
2021/12/31 04:23:52;;;;;;;0.00;0.00;;;;;;;;;;6271693;22;20010;-73
2021/12/31 04:26:17;;;;;;;0.17;0.17;;;;;;;;;;6273496;22;20030;-73
2021/12/31 04:28:43;;;;;;;0.00;0.00;;;;;;;;;;6273589;22;19999;-73
2021/12/31 04:31:08;;;;;;;0.00;0.00;;;;;;;;;;6273956;22;19999;-73
2021/12/31 04:33:33;;;;;;;0.00;0.00;;;;;;;;;;6272908;22;20000;-73
2021/12/31 04:35:58;;;;;;;0.10;0.10;;;;;;;;;;6273606;22;20113;-72
2021/12/31 04:38:24;;;;;;;1.27;1.27;;;;;;;;;;6273239;22;20082;-73
2021/12/31 04:40:49;;;;;;;0.10;0.10;;;;;;;;;;6273994;22;20007;-73
2021/12/31 04:43:14;;;;;;;0.15;0.15;;;;;;;;;;6273753;22;20002;-74
2021/12/31 04:45:39;;;;;;;0.00;0.00;;;;;;;;;;6273328;22;19999;-73
2021/12/31 04:48:05;;;;;;;0.00;0.00;;;;;;;;;;6273413;22;20037;-73
2021/12/31 04:50:30;;;;;;;0.00;0.00;;;;;;;;;;6273245;22;19999;-73
2021/12/31 04:52:55;;;;;;;0.00;0.00;;;;;;;;;;6273193;22;20058;-74
2021/12/31 04:55:21;;;;;;;0.00;0.00;;;;;;;;;;6273318;22;20812;-73
2021/12/31 04:57:48;;;;;;;0.00;0.00;;;;;;;;;;6273213;22;20333;-73
2021/12/31 05:00:14;;;;;;;0.00;0.00;;;;;;;;;;6274004;22;19999;-72
2021/12/31 05:02:39;;;;;;;0.00;0.00;;;;;;;;;;6272734;22;20303;-72
2021/12/31 05:05:05;;;;;;;0.00;0.00;;;;;;;;;;6273736;22;20003;-72
2021/12/31 05:07:30;;;;;;;0.00;0.00;;;;;;;;;;6273598;22;20027;-72
2021/12/31 05:09:55;;;;;;;0.00;0.00;;;;;;;;;;6273704;22;20333;-72
2021/12/31 05:12:26;;;;;;;0.00;0.00;;;;;;;;;;6273386;22;20002;-72
2021/12/31 05:14:52;;;;;;;0.00;0.00;;;;;;;;;;6273598;22;20018;-73
2021/12/31 05:17:17;;;;;;;0.00;0.00;;;;;;;;;;6273586;22;19992;-73
2021/12/31 05:19:44;;;;;;;0.00;0.00;;;;;;;;;;6273069;22;19999;-73
2021/12/31 05:22:12;;;;;;;0.00;0.00;;;;;;;;;;6273174;22;20074;-73
2021/12/31 05:24:37;;;;;;;0.00;0.00;;;;;;;;;;6273090;22;20079;-72
2021/12/31 05:27:02;;;;;;;0.00;0.00;;;;;;;;;;6273157;22;20050;-72
2021/12/31 05:29:28;;;;;;;0.00;0.00;;;;;;;;;;6272841;22;20003;-72
2021/12/31 05:31:53;;;;;;;0.00;0.00;;;;;;;;;;6273235;22;20079;-72
2021/12/31 05:34:18;;;;;;;0.00;0.00;;;;;;;;;;6273517;22;20006;-73
2021/12/31 05:36:44;;;;;;;0.00;0.00;;;;;;;;;;6272482;22;20329;-72
2021/12/31 05:39:10;;;;;;;0.00;0.00;;;;;;;;;;6273631;22;20476;-72
2021/12/31 05:41:36;;;;;;;0.00;0.00;;;;;;;;;;6272776;22;20002;-72
2021/12/31 05:44:01;;;;;;;0.00;0.00;;;;;;;;;;6273566;22;20007;-73
2021/12/31 05:46:26;;;;;;;0.00;0.00;;;;;;;;;;6272760;22;20004;-73
2021/12/31 05:48:51;;;;;;;0.00;0.00;;;;;;;;;;6273033;22;19999;-72
2021/12/31 05:51:16;;;;;;;0.00;0.00;;;;;;;;;;6272573;22;19999;-72
2021/12/31 05:53:42;;;;;;;0.00;0.00;;;;;;;;;;6272491;22;20000;-72
2021/12/31 05:56:07;;;;;;;0.00;0.00;;;;;;;;;;6273319;22;19991;-72
2021/12/31 05:58:32;;;;;;;0.30;0.30;;;;;;;;;;6272583;22;20030;-71
2021/12/31 06:00:57;;;;;;;0.00;0.00;;;;;;;;;;6273039;22;20361;-72
2021/12/31 06:03:22;;;;;;;0.00;0.00;;;;;;;;;;6272887;22;20425;-72
2021/12/31 06:05:48;;;;;;;0.00;0.00;;;;;;;;;;6272089;22;20136;-72
2021/12/31 06:08:13;;;;;;;0.00;0.00;;;;;;;;;;6273045;22;20004;-72
2021/12/31 06:10:40;;;;;;;0.00;0.00;;;;;;;;;;6272405;22;20313;-72
2021/12/31 06:13:06;;;;;;;0.00;0.00;;;;;;;;;;6272653;22;20007;-72
2021/12/31 06:15:32;;;;;;;0.00;0.00;;;;;;;;;;6272563;22;19999;-72
2021/12/31 06:17:58;;;;;;;0.00;0.00;;;;;;;;;;6272513;22;19992;-72
2021/12/31 06:20:24;;;;;;;0.00;0.00;;;;;;;;;;6272268;22;20059;-72
2021/12/31 06:22:49;;;;;;;0.00;0.00;;;;;;;;;;6272330;22;20769;-73
2021/12/31 06:25:14;;;;;;;0.00;0.00;;;;;;;;;;6272979;22;20056;-73
2021/12/31 06:27:40;;;;;;;0.00;0.00;;;;;;;;;;6272253;22;20027;-72
2021/12/31 06:30:05;;;;;;;0.00;0.00;;;;;;;;;;6272511;22;19999;-73
2021/12/31 06:32:31;;;;;;;0.00;0.00;;;;;;;;;;6271813;22;20006;-74
2021/12/31 06:34:57;;;;;;;0.00;0.00;;;;;;;;;;6272547;22;20558;-73
2021/12/31 06:37:23;;;;;;;0.00;0.00;;;;;;;;;;6272880;22;19999;-73
2021/12/31 06:39:48;;;;;;;0.00;0.00;;;;;;;;;;6272202;22;20050;-73
2021/12/31 06:42:13;;;;;;;0.00;0.00;;;;;;;;;;6272598;22;19999;-72
2021/12/31 06:44:39;;;;;;;0.00;0.00;;;;;;;;;;6272136;22;20000;-72
2021/12/31 06:47:05;;;;;;;0.00;0.00;;;;;;;;;;6272522;22;20436;-73
2021/12/31 06:49:31;;;;;;;0.00;0.00;;;;;;;;;;6271096;22;20004;-73
2021/12/31 06:51:56;;;;;;;0.00;0.00;;;;;;;;;;6272588;22;20083;-73
2021/12/31 06:54:21;;;;;;;0.00;0.00;;;;;;;;;;6272558;22;20050;-72
2021/12/31 06:56:46;;;;;;;0.00;0.00;;;;;;;;;;6271517;22;20523;-72
2021/12/31 06:59:12;;;;;;;0.20;0.20;;;;;;;;;;6272499;22;19995;-73
2021/12/31 07:01:37;;;;;;;0.00;0.00;;;;;;;;;;6271494;22;20004;-73
2021/12/31 07:04:02;;;;;;;0.00;0.00;;;;;;;;;;6271952;22;20023;-73
2021/12/31 07:06:27;;;;;;;0.00;0.00;;;;;;;;;;6271860;22;20000;-75
2021/12/31 07:08:53;;;;;;;0.00;0.00;;;;;;;;;;6272556;22;20007;-73
2021/12/31 07:11:21;;;;;;;0.00;0.00;;;;;;;;;;6272195;22;20000;-73
2021/12/31 07:13:47;;;;;;;0.17;0.17;;;;;;;;;;6271457;22;20002;-72
2021/12/31 07:16:12;;;;;;;0.00;0.00;;;;;;;;;;6271426;22;20022;-73
2021/12/31 07:18:37;;;;;;;0.00;0.00;;;;;;;;;;6243695;22;19996;-73
2021/12/31 07:21:02;;;;;;;0.10;0.10;;;;;;;;;;6272609;22;19996;-73
2021/12/31 07:23:28;;;;;;;2.22;2.13;;;;;;;;;;6272274;22;20003;-72
2021/12/31 07:25:53;;;;;;;0.00;0.00;;;;;;;;;;6271482;22;20011;-73
2021/12/31 07:28:18;;;;;;;0.00;0.00;;;;;;;;;;6272093;22;20065;-73
2021/12/31 07:30:46;;;;;;;0.10;0.10;;;;;;;;;;6271763;22;20475;-73
2021/12/31 07:33:15;;;;;;;0.20;0.20;;;;;;;;;;6271798;22;20000;-72
2021/12/31 07:35:40;;;;;;;0.00;0.00;;;;;;;;;;6271466;22;19999;-73
2021/12/31 07:38:05;;;;;;;0.00;0.00;;;;;;;;;;6272138;22;20416;-72
2021/12/31 07:40:41;;;;;;;0.00;0.00;;;;;;;;;;6271093;22;19992;-73
2021/12/31 07:43:07;;;;;;;0.45;0.45;;;;;;;;;;6272209;22;20049;-72
2021/12/31 07:45:32;;;;;;;0.00;0.00;;;;;;;;;;6270060;22;20102;-74
2021/12/31 07:47:58;;;;;;;0.60;0.60;;;;;;;;;;6271193;22;19996;-73
2021/12/31 07:50:23;;;;;;;0.00;0.00;;;;;;;;;;6272102;22;20031;-73
2021/12/31 07:52:49;;;;;;;0.15;0.15;;;;;;;;;;6270981;22;19996;-74
2021/12/31 07:55:14;;;;;;;0.00;0.00;;;;;;;;;;6271840;22;20000;-74
2021/12/31 07:57:39;;;;;;;0.00;0.00;;;;;;;;;;6271506;22;20340;-74
2021/12/31 08:00:05;;;;;;;0.00;0.00;;;;;;;;;;6245431;22;20437;-74
2021/12/31 08:02:30;;;;;;;0.00;0.00;;;;;;;;;;6272482;22;20003;-74
2021/12/31 08:04:56;;;;;;;0.00;0.00;;;;;;;;;;6273945;22;20122;-74
2021/12/31 08:07:21;;;;;;;0.30;0.30;;;;;;;;;;6273844;22;20477;-75
2021/12/31 08:09:46;;;;;;;0.38;0.38;;;;;;;;;;6273360;22;20414;-74
2021/12/31 08:12:11;;;;;;;0.55;0.20;;;;;;;;;;6274201;22;20329;-73
2021/12/31 08:14:36;;;;;;;0.00;0.00;;;;;;;;;;6272640;22;20364;-73
2021/12/31 08:17:02;;;;;;;0.25;0.20;;;;;;;;;;6273603;22;20175;-74
2021/12/31 08:19:27;;;;;;;0.00;0.00;;;;;;;;;;6271417;22;20022;-73
2021/12/31 08:21:52;;;;;;;0.00;0.00;;;;;;;;;;6270854;22;20329;-75
2021/12/31 08:24:17;;;;;;;0.00;0.00;;;;;;;;;;6272482;22;20371;-74
2021/12/31 08:26:42;;;;;;;4.55;0.90;;;;;;;;;;6271838;22;20437;-73
2021/12/31 08:29:12;;;;;;;0.00;0.00;;;;;;;;;;6271463;22;20000;-74
2021/12/31 08:31:37;;;;;;;;;;;;;;;;;;6273126;22;20003;-72
2021/12/31 08:34:02;;;;;;;0.00;0.00;;;;;;;;;;6273363;22;19913;-74
2021/12/31 08:36:28;;;;;;;0.00;0.00;;;;;;;;;;6272622;22;19999;-74
2021/12/31 08:38:53;;;;;;;0.00;0.00;;;;;;;;;;6272212;22;20020;-74
2021/12/31 08:41:18;;;;;;;0.00;0.00;;;;;;;;;;6272994;22;20031;-74
2021/12/31 08:43:44;;;;;;;0.00;0.00;;;;;;;;;;6245491;22;20000;-74
2021/12/31 08:46:09;;;;;;;0.00;0.00;;;;;;;;;;6272785;22;20007;-74
2021/12/31 08:48:34;;;;;;;0.20;0.20;;;;;;;;;;6272586;22;20437;-72
2021/12/31 08:50:59;;;;;;;0.28;0.20;;;;;;;;;;6271176;22;20153;-73
2021/12/31 08:53:25;;;;;;;0.00;0.00;;;;;;;;;;6273117;22;20325;-74
2021/12/31 08:55:50;;;;;;;0.20;0.20;;;;;;;;;;6273045;22;20094;-75
2021/12/31 08:58:15;;;;;;;0.20;0.20;;;;;;;;;;6271346;22;19995;-74
2021/12/31 09:00:40;;;;;;;2.55;2.40;;;;;;;;;;6271570;22;19996;-72
2021/12/31 09:03:06;;;;;;;0.90;0.80;;;;;;;;;;6271198;22;20066;-74
2021/12/31 09:05:33;;;;;;;0.20;0.20;;;;;;;;;;6272311;22;19999;-74
2021/12/31 09:07:58;;;;;;;0.00;0.00;;;;;;;;;;6272532;22;20010;-74
2021/12/31 09:10:23;;;;;;;0.88;0.88;;;;;;;;;;6273011;22;20000;-74
2021/12/31 09:12:50;;;;;;;0.88;0.35;;;;;;;;;;6272287;22;19999;-74
2021/12/31 09:15:15;;;;;;;1.92;0.73;;;;;;;;;;6273256;22;20003;-75
2021/12/31 09:17:40;;;;;;;0.00;0.00;;;;;;;;;;6272288;22;19996;-74
2021/12/31 09:20:06;;;;;;;0.05;0.05;;;;;;;;;;6272801;22;19995;-73
2021/12/31 09:22:31;;;;;;;0.98;0.05;;;;;;;;;;6272900;22;20014;-75
2021/12/31 09:25:00;;;;;;;1.08;0.30;;;;;;;;;;6273616;22;19996;-74
2021/12/31 09:27:25;;;;;;;0.13;0.13;;;;;;;;;;6272946;22;20027;-74
2021/12/31 09:29:51;;;;;;;0.00;0.00;;;;;;;;;;6272597;22;20471;-74
2021/12/31 09:32:16;;;;;;;0.10;0.10;;;;;;;;;;6273124;22;20145;-74
2021/12/31 09:34:43;;;;;;;7.88;0.95;;;;;;;;;;6272312;22;20004;-74
2021/12/31 09:37:08;;;;;;;0.63;0.40;;;;;;;;;;6273320;22;20071;-74
2021/12/31 09:39:34;;;;;;;0.00;0.00;;;;;;;;;;6272180;22;20031;-74
2021/12/31 09:41:59;;;;;;;0.25;0.25;;;;;;;;;;6272652;22;19996;-74
2021/12/31 09:44:24;;;;;;;0.52;0.52;;;;;;;;;;6273088;22;20000;-74
2021/12/31 09:46:49;;;;;;;0.30;0.30;;;;;;;;;;6272411;22;20084;-73
2021/12/31 09:49:14;;;;;;;0.00;0.00;;;;;;;;;;6272616;22;20016;-74
2021/12/31 09:51:43;;;;;;;0.10;0.10;;;;;;;;;;6272739;22;20008;-73
2021/12/31 09:54:09;;;;;;;0.10;0.10;;;;;;;;;;6272794;22;20004;-74
2021/12/31 09:56:39;;;;;;;0.00;0.00;;;;;;;;;;6272155;22;20000;-75
2021/12/31 09:59:04;;;;;;;0.00;0.00;;;;;;;;;;6242865;22;19992;-73
2021/12/31 10:01:29;;;;;;;0.00;0.00;;;;;;;;;;6268155;22;20061;-74
2021/12/31 10:03:56;;;;;;;0.63;0.10;;;;;;;;;;6269285;22;20050;-73
2021/12/31 10:06:21;;;;;;;0.28;0.28;;;;;;;;;;6269549;22;20018;-71
2021/12/31 10:08:47;;;;;;;0.32;0.32;;;;;;;;;;6271126;22;20086;-74
2021/12/31 10:11:22;;;;;;;0.15;0.15;;;;;;;;;;6271705;22;20004;-75
2021/12/31 10:13:54;;;;;;;0.20;0.20;;;;;;;;;;6243891;22;20008;-75
2021/12/31 10:16:20;;;;;;;0.70;0.28;;;;;;;;;;6271444;22;20011;-74
2021/12/31 10:18:47;;;;;;;0.00;0.00;;;;;;;;;;6271546;22;20321;-74
2021/12/31 10:21:13;;;;;;;0.00;0.00;;;;;;;;;;6243597;22;20000;-74
2021/12/31 10:23:38;;;;;;;0.00;0.00;;;;;;;;;;6267930;22;20330;-74
2021/12/31 10:26:08;;;;;;;0.00;0.00;;;;;;;;;;6271209;22;20016;-73
2021/12/31 10:28:33;;;;;;;0.00;0.00;;;;;;;;;;6270618;22;20049;-74
2021/12/31 10:31:14;;;;;;;0.00;0.00;;;;;;;;;;6271286;22;20314;-74
2021/12/31 10:33:43;;;;;;;0.00;0.00;;;;;;;;;;6270140;22;19999;-73
2021/12/31 10:36:08;;;;;;;0.00;0.00;;;;;;;;;;6270947;22;20074;-74
2021/12/31 10:38:36;;;;;;;0.28;0.28;;;;;;;;;;6270596;22;20453;-74
2021/12/31 10:41:03;;;;;;;0.75;0.75;;;;;;;;;;6271555;22;19995;-75
2021/12/31 10:43:29;;;;;;;0.15;0.15;;;;;;;;;;6271370;22;20402;-74
2021/12/31 10:46:04;;;;;;;0.00;0.00;;;;;;;;;;6271658;22;20002;-74
2021/12/31 10:48:38;;;;;;;0.00;0.00;;;;;;;;;;6272009;22;20251;-74
2021/12/31 10:51:04;;;;;;;0.00;0.00;;;;;;;;;;6272271;22;19998;-74
2021/12/31 10:53:33;;;;;;;0.00;0.00;;;;;;;;;;6271860;22;19992;-74
2021/12/31 10:56:25;;;;;;;0.00;0.00;;;;;;;;;;6271855;22;20003;-76
2021/12/31 10:58:57;;;;;;;0.00;0.00;;;;;;;;;;6264606;22;20058;-74
2021/12/31 11:01:22;;;;;;;0.45;0.25;;;;;;;;;;6271859;22;19992;-75
2021/12/31 11:03:48;;;;;;;1.50;1.48;;;;;;;;;;6271049;22;20045;-75
2021/12/31 11:06:14;;;;;;;0.40;0.20;;;;;;;;;;6244950;22;20022;-75
2021/12/31 11:08:43;;;;;;;0.10;0.10;;;;;;;;;;6271142;22;20030;-71
2021/12/31 11:11:10;;;;;;;0.13;0.08;;;;;;;;;;6270962;22;20023;-70
2021/12/31 11:13:35;;;;;;;0.00;0.00;;;;;;;;;;6271085;22;19996;-71
2021/12/31 11:16:01;;;;;;;0.00;0.00;;;;;;;;;;6271618;22;20071;-68
2021/12/31 11:18:26;;;;;;;0.35;0.35;;;;;;;;;;6271456;22;19999;-69
2021/12/31 11:20:52;;;;;;;0.08;0.08;;;;;;;;;;6271641;22;20000;-69
2021/12/31 11:23:23;;;;;;;0.52;0.30;;;;;;;;;;6272190;22;20000;-71
2021/12/31 11:25:51;;;;;;;0.55;0.55;;;;;;;;;;6270772;22;20020;-71
2021/12/31 11:28:27;;;;;;;0.00;0.00;;;;;;;;;;6271715;22;19995;-71
2021/12/31 11:30:52;;;;;;;0.00;0.00;;;;;;;;;;6271680;22;20023;-71
2021/12/31 11:33:18;;;;;;;0.00;0.00;;;;;;;;;;6271807;22;20301;-71
2021/12/31 11:35:45;;;;;;;0.00;0.00;;;;;;;;;;6270242;22;19996;-71
2021/12/31 11:38:15;;;;;;;0.00;0.00;;;;;;;;;;6271507;22;20004;-71
2021/12/31 11:40:44;;;;;;;0.00;0.00;;;;;;;;;;6271456;22;20008;-69
2021/12/31 11:43:10;;;;;;;;;;;;;;;;;;6272404;22;20386;-69
2021/12/31 11:45:35;;;;;;;0.00;0.00;;;;;;;;;;6270563;22;20317;-69
2021/12/31 11:48:00;;;;;;;0.00;0.00;;;;;;;;;;6271915;22;20004;-69
2021/12/31 11:50:29;;;;;;;0.00;0.00;;;;;;;;;;6271900;22;20075;-70
2021/12/31 11:53:01;;;;;;;0.00;0.00;;;;;;;;;;6271541;22;20768;-69
2021/12/31 11:55:26;;;;;;;0.30;0.30;;;;;;;;;;6269004;22;20007;-69
2021/12/31 11:57:52;;;;;;;0.00;0.00;;;;;;;;;;6269679;22;19996;-71
2021/12/31 12:00:25;;;;;;;0.00;0.00;;;;;;;;;;6244849;22;20098;-60
2021/12/31 12:02:50;;;;;;;0.30;0.17;;;;;;;;;;6271222;22;20000;-61
2021/12/31 12:05:16;;;;;;;4.68;0.90;;;;;;;;;;6270407;22;20321;-61
2021/12/31 12:07:42;;;;;;;0.00;0.00;;;;;;;;;;6271817;22;20026;-61
2021/12/31 12:10:11;;;;;;;1.35;1.35;;;;;;;;;;6270926;22;20004;-61
2021/12/31 12:12:36;;;;;;;;;;;;;;;;;;6270440;22;20000;-60
2021/12/31 12:15:13;;;;;;;0.00;0.00;;;;;;;;;;6270540;22;19909;-60
2021/12/31 12:17:43;;;;;;;0.00;0.00;;;;;;;;;;6269902;22;20398;-61
2021/12/31 12:20:09;;;;;;;1.35;0.30;;;;;;;;;;6270649;22;19999;-61
2021/12/31 12:22:40;;;;;;;0.00;0.00;;;;;;;;;;6271051;22;19995;-61
2021/12/31 12:25:08;;;;;;;1.77;0.35;;;;;;;;;;6270157;22;20426;-61
2021/12/31 12:27:33;;;;;;;1.90;1.27;;;;;;;;;;6270169;22;20091;-61
2021/12/31 12:30:00;;;;;;;0.52;0.52;;;;;;;;;;6269964;22;20034;-61
2021/12/31 12:32:51;;;;;;;0.08;0.08;;;;;;;;;;6270670;22;19995;-62
2021/12/31 12:35:21;;;;;;;0.00;0.00;;;;;;;;;;6269836;22;20035;-62
2021/12/31 12:37:56;;;;;;;0.00;0.00;;;;;;;;;;6269880;22;20000;-62
2021/12/31 12:40:34;;;;;;;0.30;0.30;;;;;;;;;;6270802;22;20062;-62
2021/12/31 12:42:59;;;;;;;1.65;1.45;;;;;;;;;;6269787;22;20003;-61
2021/12/31 12:45:24;;;;;;;5.68;0.88;;;;;;;;;;6270346;22;19996;-62
2021/12/31 12:47:52;;;;;;;0.00;0.00;;;;;;;;;;6272107;22;20011;-61
2021/12/31 12:50:17;;;;;;;0.00;0.00;;;;;;;;;;6272100;22;20003;-62
2021/12/31 12:52:55;;;;;;;1.00;1.00;;;;;;;;;;6272069;22;20038;-62
2021/12/31 12:55:21;;;;;;;27.85;0.88;;;;;;;;;;6271939;22;20010;-62
2021/12/31 12:57:53;;;;;;;0.38;0.38;;;;;;;;;;6271289;22;19999;-62
2021/12/31 13:00:29;;;;;;;0.10;0.10;;;;;;;;;;6272372;22;20365;-62
2021/12/31 13:03:02;;;;;;;0.63;0.57;;;;;;;;;;6271295;22;20027;-61
2021/12/31 13:05:27;;;;;;;0.40;0.30;;;;;;;;;;6244732;22;19999;-61
2021/12/31 13:07:53;;;;;;;0.10;0.10;;;;;;;;;;6272072;22;20014;-61
2021/12/31 13:10:22;;;;;;;0.57;0.57;;;;;;;;;;6273709;22;20000;-62
2021/12/31 13:12:48;;;;;;;0.55;0.55;;;;;;;;;;6272342;22;20245;-60
2021/12/31 13:15:13;;;;;;;0.80;0.20;;;;;;;;;;6273139;22;19996;-61
2021/12/31 13:17:39;;;;;;;0.00;0.00;;;;;;;;;;6272499;22;19995;-62
2021/12/31 13:20:08;;;;;;;0.00;0.00;;;;;;;;;;6273114;22;20007;-61
2021/12/31 13:22:34;;;;;;;0.00;0.00;;;;;;;;;;6273012;22;19996;-60
2021/12/31 13:24:59;;;;;;;0.00;0.00;;;;;;;;;;6272850;22;20026;-60
2021/12/31 13:27:25;;;;;;;0.00;0.00;;;;;;;;;;6273163;22;20027;-61
2021/12/31 13:30:00;;;;;;;0.00;0.00;;;;;;;;;;6272875;22;20038;-61
2021/12/31 13:32:35;;;;;;;0.00;0.00;;;;;;;;;;6272484;22;20010;-62
2021/12/31 13:35:03;;;;;;;0.00;0.00;;;;;;;;;;6272081;22;20070;-61
2021/12/31 13:37:30;;;;;;;0.15;0.15;;;;;;;;;;6272190;22;20420;-61
2021/12/31 13:40:15;;;;;;;0.00;0.00;;;;;;;;;;6272688;22;20082;-61
2021/12/31 13:42:44;;;;;;;0.20;0.20;;;;;;;;;;6272539;22;20487;-61
2021/12/31 13:45:22;;;;;;;0.00;0.00;;;;;;;;;;6273237;22;20079;-62
2021/12/31 13:47:48;;;;;;;0.65;0.65;;;;;;;;;;6272525;22;20027;-61
2021/12/31 13:50:13;;;;;;;0.00;0.00;;;;;;;;;;6272929;22;19995;-62
2021/12/31 13:52:59;;;;;;;0.00;0.00;;;;;;;;;;6272258;22;20004;-61
2021/12/31 13:55:37;;;;;;;0.00;0.00;;;;;;;;;;6272842;22;20004;-62
2021/12/31 13:58:04;;;;;;;0.00;0.00;;;;;;;;;;6272494;22;20022;-61
2021/12/31 14:00:30;;;;;;;0.00;0.00;;;;;;;;;;6272488;22;20007;-62
2021/12/31 14:02:56;;;;;;;0.00;0.00;;;;;;;;;;6272175;22;20004;-62
2021/12/31 14:05:23;;;;;;;0.00;0.00;;;;;;;;;;6272737;22;20592;-62
2021/12/31 14:07:58;;;;;;;1.23;1.23;;;;;;;;;;6271899;22;20076;-62
2021/12/31 14:10:31;;;;;;;0.25;0.20;;;;;;;;;;6272670;22;20007;-61
2021/12/31 14:12:56;;;;;;;0.00;0.00;;;;;;;;;;6271939;22;20007;-62
2021/12/31 14:15:26;;;;;;;0.00;0.00;;;;;;;;;;6272818;22;20413;-62
2021/12/31 14:17:51;;;;;;;0.50;0.50;;;;;;;;;;6272346;22;19995;-62
2021/12/31 14:20:19;;;;;;;3.83;1.77;;;;;;;;;;6272490;22;20492;-62
2021/12/31 14:22:44;;;;;;;0.10;0.10;;;;;;;;;;6271639;22;20002;-62
2021/12/31 14:25:09;;;;;;;0.00;0.00;;;;;;;;;;6272610;22;20004;-67
2021/12/31 14:27:35;;;;;;;0.45;0.45;;;;;;;;;;6245300;22;20342;-72
2021/12/31 14:30:00;;;;;;;3.08;0.40;;;;;;;;;;6268912;22;20004;-72
2021/12/31 14:32:26;;;;;;;0.70;0.70;;;;;;;;;;6270459;22;20023;-72
2021/12/31 14:34:52;;;;;;;0.00;0.00;;;;;;;;;;6270314;22;20079;-72
2021/12/31 14:37:18;;;;;;;0.80;0.38;;;;;;;;;;6271447;22;20353;-72
2021/12/31 14:39:57;;;;;;;0.40;0.40;;;;;;;;;;6271152;22;20027;-72
2021/12/31 14:42:26;;;;;;;0.00;0.00;;;;;;;;;;6271297;22;19996;-72
2021/12/31 14:44:52;;;;;;;0.00;0.00;;;;;;;;;;6270370;22;20000;-72